23 maja 2022

Czas Kod Pogoda Temp. Widoczność Chmury Wiatr METAR/SPECI
09:00
M
15 °C 10 km+ 1.200 ft 270°   270° 10 kt METAR LFBP 230700Z AUTO 27010KT 9999 BKN012 BKN019 OVC037 15/14 Q1012 TEMPO 4000 -RA BECMG OVC020
08:30
M
16 °C 10 km+ 1.700 ft 280°   280° 14 kt METAR LFBP 230630Z AUTO 28014KT 9999 BKN017 BKN027 OVC037 16/13 Q1012 TEMPO 4000 -RA OVC009
08:00
M
16 °C 10 km+ 1.600 ft 270°   270° 11 kt METAR LFBP 230600Z AUTO 27011KT 240V300 9999 BKN016 OVC023 16/14 Q1011 TEMPO 4000 -RA OVC009
07:30
M
16 °C 10 km+ 1.500 ft Var   000° 0 kt METAR LFBP 230530Z AUTO /////KT 9999 BKN015 16/14 Q1011
07:00
M
16 °C 10 km+ 1.600 ft 270°   270° 11 kt METAR LFBP 230500Z AUTO 27011KT 9999 OVC016 16/13 Q1011 TEMPO BKN008 SCT030TCU
06:30
M
16 °C 10 km+ 1.600 ft 280°   280° 11 kt METAR LFBP 230430Z AUTO 28011KT 9999 BKN016 OVC072 16/13 Q1011 TEMPO BKN008 SCT030TCU
06:00
M
16 °C 10 km+ 1.500 ft 280°   280° 10 kt METAR LFBP 230400Z AUTO 28010KT 9999 OVC015 16/14 Q1011 TEMPO BKN008 SCT030TCU
05:30
M
16 °C 10 km+ 1.600 ft 290°   290° 10 kt METAR LFBP 230330Z AUTO 29010KT 9999 BKN016 16/13 Q1011 TEMPO BKN008 SCT030TCU
05:00
V
16 °C 10 km+ - 300°   300° 10 kt METAR LFBP 230300Z AUTO 30010KT 9999 FEW056 SCT078 16/13 Q1011 TEMPO BKN008 SCT030TCU
04:30
V
16 °C 10 km+ 8.200 ft 290°   290° 9 kt METAR LFBP 230230Z AUTO 29009KT 9999 FEW052 BKN082 16/13 Q1011 TEMPO BKN008 SCT030TCU
04:00
V
16 °C 10 km+ 8.600 ft 280°   280° 14 kt METAR LFBP 230200Z AUTO 28014KT 9999 SCT052 SCT074 BKN086 16/13 Q1011 TEMPO BKN008 SCT030TCU
03:30
V
16 °C 10 km+ 10.000 ft 280°   280° 12 kt METAR LFBP 230130Z AUTO 28012KT 9999 FEW052 BKN100 16/13 Q1011 TEMPO BKN008 SCT030TCU
03:00
V
16 °C 10 km+ 10.000 ft 260°   260° 11 kt METAR LFBP 230100Z AUTO 26011KT 9999 FEW027 BKN100 BKN250 16/14 Q1011 TEMPO BKN008 SCT030TCU
02:30
M
17 °C 10 km+ 2.200 ft 260°   260° 10 kt METAR LFBP 230030Z AUTO 26010KT 9999 FEW016 BKN022 17/14 Q1011 TEMPO BKN008 SCT030TCU
02:00
M
17 °C 10 km+ 1.500 ft 260°   260° 12 kt METAR LFBP 230000Z AUTO 26012KT 9999 OVC015 17/15 Q1012 TEMPO BKN008 SCT030TCU
01:30
M
17 °C 10 km+ 1.300 ft 260°   260° 11 kt METAR LFBP 222330Z AUTO 26011KT 9999 OVC013 17/15 Q1012 TEMPO BKN008 SCT030TCU
01:00
M
17 °C 10 km+ 1.400 ft 260°   260° 17 28 kt METAR LFBP 222300Z AUTO 26017G28KT 9999 OVC014 17/15 Q1012 TEMPO TSRA BKN008 SCT030TCU BECMG 26010KT
00:30
M
17 °C 10 km+ 1.200 ft 260°   260° 15 kt METAR LFBP 222230Z AUTO 26015KT 9999 OVC012 17/15 Q1012 TEMPO TSRA BKN008 SCT030TCU
00:00
M
17 °C 10 km+ 1.100 ft 270°   270° 14 kt METAR LFBP 222200Z AUTO 27014KT 240V300 9999 OVC011 17/15 Q1012 TEMPO TSRA SCT080CB

22 maja 2022

Czas Kod Pogoda Temp. Widoczność Chmury Wiatr METAR/SPECI
23:30
M
18 °C 10 km+ 1.200 ft 260°   260° 13 kt METAR LFBP 222130Z AUTO 26013KT 9999 OVC012 18/16 Q1012 NOSIG
23:00
M
18 °C 10 km+ 1.300 ft 280°   280° 11 kt METAR LFBP 222100Z AUTO 28011KT 250V310 9999 BKN013 BKN026 18/16 Q1011 NOSIG
22:30
M
19 °C 10 km+ 1.200 ft 270°   270° 14 kt METAR LFBP 222030Z AUTO 27014KT 9999 OVC012/// ///CB 19/16 Q1011 BECMG BKN010
22:00
M
19 °C 10 km+ 1.300 ft 290°   290° 14 kt METAR LFBP 222000Z AUTO 29014KT 260V330 9999 BKN013/// OVC072/// //////CB 19/17 Q1011 TEMPO TSRA BECMG BKN010
21:30
V
20 °C 10 km+ 13.000 ft 260°   260° 17 kt METAR LFBP 221930Z AUTO 26017KT 9999 FEW013/// SCT110/// BKN130/// //////TCU 20/17 Q1010 TEMPO TSRA SCT080CB
21:00
V
25 °C 10 km+ 13.000 ft 230°   230° 8 28 kt METAR LFBP 221900Z AUTO 23008G28KT 190V300 9999 FEW070/// BKN130/// //////TCU 25/17 Q1008 BECMG BKN010
20:30
V
26 °C 10 km+ 12.000 ft 260°   260° 14 24 kt METAR LFBP 221830Z AUTO 26014G24KT 240V310 9999 FEW076/// BKN120/// //////TCU 26/14 Q1007 BECMG BKN010
20:00
V
27 °C 10 km+ 13.000 ft 290°   290° 13 kt METAR LFBP 221800Z AUTO 29013KT 9999 FEW098 BKN130 BKN150 27/19 Q1006 TEMPO 28020G40KT 3000 TSRAGR SCT080CB
19:30
V
27 °C 10 km+ 13.000 ft 280°   280° 8 kt METAR LFBP 221730Z AUTO 28008KT 9999 VCTS FEW033/// BKN130/// BKN150/// ///CB 27/23 Q1007 TEMPO 28020G40KT 3000 TSRAGR BECMG BKN010
19:00
V
28 °C 10 km+ - 330°   330° 7 kt METAR LFBP 221700Z AUTO 33007KT 9999 ///TCU 28/22 Q1006 TEMPO 28020G40KT 3000 TSRAGR SCT080CB
18:30
V
29 °C 10 km+ - 320°   320° 7 kt METAR LFBP 221630Z AUTO 32007KT 290V350 CAVOK 29/22 Q1006 TEMPO 28020G40KT 3000 TSRAGR SCT080CB
18:00
V
30 °C 10 km+ - 280°   280° 3 kt METAR LFBP 221600Z AUTO 28003KT 220V320 CAVOK 30/22 Q1006 TEMPO 28020G40KT 3000 TSRAGR SCT080CB
17:30
V
30 °C 10 km+ - Var   Var 3 kt METAR LFBP 221530Z AUTO VRB03KT CAVOK 30/22 Q1006 TEMPO 28020G40KT 3000 TSRAGR SCT080CB
17:00
V
30 °C 10 km+ - 090°   090° 4 kt METAR LFBP 221500Z AUTO 09004KT 050V130 CAVOK 30/21 Q1007 TEMPO 28020G40KT 3000 TSRAGR SCT080CB
16:30
V
30 °C 10 km+ - 080°   080° 6 kt METAR LFBP 221430Z AUTO 08006KT 060V120 CAVOK 30/22 Q1007 TEMPO 28020G40KT 3000 TSRAGR SCT080CB
16:00
V
29 °C 10 km+ - 090°   090° 8 kt METAR LFBP 221400Z AUTO 09008KT 060V120 9999 //////TCU 29/21 Q1007 TEMPO 28020G40KT 3000 TSRAGR SCT080CB
15:30
V
28 °C 10 km+ - 110°   110° 7 kt METAR LFBP 221330Z AUTO 11007KT 070V140 CAVOK 28/21 Q1008 TEMPO 28020G40KT 3000 TSRAGR SCT080CB
15:00
V
28 °C 10 km+ - 110°   110° 4 kt METAR LFBP 221300Z AUTO 11004KT 060V150 CAVOK 28/22 Q1008 TEMPO 32010KT
14:30
V
28 °C 10 km+ - Var   Var 3 kt METAR LFBP 221230Z AUTO VRB03KT CAVOK 28/21 Q1009 NOSIG
14:00
V
27 °C 10 km+ - Var   Var 3 kt METAR LFBP 221200Z AUTO VRB03KT CAVOK 27/21 Q1009 NOSIG
13:30
V
27 °C 10 km+ - 080°   080° 3 kt METAR LFBP 221130Z AUTO 08003KT 030V120 CAVOK 27/21 Q1009 TEMPO 32010KT
13:00
V
27 °C 10 km+ - 100°   100° 5 kt METAR LFBP 221100Z AUTO 10005KT 060V170 CAVOK 27/20 Q1010 TEMPO 32010KT
12:30
V
27 °C 10 km+ - 070°   070° 3 kt METAR LFBP 221030Z AUTO 07003KT 030V110 CAVOK 27/20 Q1010 TEMPO 32010KT
12:00
V
26 °C 10 km+ - Var   Var 2 kt METAR LFBP 221000Z AUTO VRB02KT CAVOK 26/20 Q1011 NOSIG
11:30
V
25 °C 10 km+ - 070°   070° 4 kt METAR LFBP 220930Z AUTO 07004KT 020V100 CAVOK 25/19 Q1010 NOSIG
11:00
V
24 °C 10 km+ - Var   Var 2 kt METAR LFBP 220900Z AUTO VRB02KT CAVOK 24/19 Q1011 NOSIG
10:30
V
23 °C 10 km+ - Var   Var 2 kt METAR LFBP 220830Z AUTO VRB02KT CAVOK 23/18 Q1011 NOSIG
10:00
V
22 °C 10 km+ - Var   Var 3 kt METAR LFBP 220800Z AUTO VRB03KT CAVOK 22/18 Q1012 NOSIG
09:30
V
21 °C 10 km+ - Var   Var 2 kt METAR LFBP 220730Z AUTO VRB02KT CAVOK 21/18 Q1012 NOSIG
09:00
V
20 °C 10 km+ - 080°   080° 8 kt METAR LFBP 220700Z AUTO 08008KT CAVOK 20/18 Q1011 NOSIG
08:30
V
18 °C 10 km+ - Var   Var 2 kt METAR LFBP 220630Z AUTO VRB02KT CAVOK 18/17 Q1013 NOSIG
08:00
V
18 °C 10 km+ - Var   Var 2 kt METAR LFBP 220600Z AUTO VRB02KT CAVOK 18/17 Q1014 TEMPO BKN007
07:30
V
17 °C 10 km+ - Var   Var 3 kt METAR LFBP 220530Z AUTO VRB03KT CAVOK 17/16 Q1014 TEMPO BKN007
07:00
V
17 °C 10 km+ - Var   Var 3 kt METAR LFBP 220500Z AUTO VRB03KT CAVOK 17/16 Q1014 TEMPO BKN007
06:30
V
17 °C 10 km+ 21.000 ft 240°   240° 3 kt METAR LFBP 220430Z AUTO 24003KT 200V300 9999 FEW010 BKN210 BKN240 17/16 Q1014 TEMPO BKN007
06:00
I
17 °C 10 km+ 900 ft 270°   270° 7 kt METAR LFBP 220400Z AUTO 27007KT 240V300 9999 BKN009 BKN190 17/16 Q1014 NOSIG
05:30
V
18 °C 10 km+ 19.000 ft 240°   240° 5 kt METAR LFBP 220330Z AUTO 24005KT 9999 FEW007 BKN190 18/17 Q1014 TEMPO BKN007
05:00
I
18 °C 10 km+ 700 ft 240°   240° 6 kt METAR LFBP 220300Z AUTO 24006KT 9999 BKN007 OVC190 18/17 Q1014 BECMG NSC
04:30
I
18 °C 9 km 600 ft 250°   250° 6 kt METAR LFBP 220230Z AUTO 25006KT 220V280 9000 OVC006 18/17 Q1014 BECMG NSC
04:00
I
18 °C 10 km+ 600 ft 250°   250° 7 kt METAR LFBP 220200Z AUTO 25007KT 210V270 9999 OVC006 18/17 Q1015 BECMG NSC
03:30
I
18 °C 9 km 600 ft 290°   290° 10 kt METAR LFBP 220130Z AUTO 29010KT 9000 OVC006 18/17 Q1015 BECMG NSC
03:00
I
19 °C 10 km+ 800 ft 280°   280° 10 kt METAR LFBP 220100Z AUTO 28010KT 9999 BKN008 BKN190 19/18 Q1014 BECMG NSC
02:30
V
20 °C 10 km+ - 280°   280° 6 kt METAR LFBP 220030Z AUTO 28006KT CAVOK 20/18 Q1014 TEMPO BKN005
02:00
V
20 °C 10 km+ - 250°   250° 7 kt METAR LFBP 220000Z AUTO 25007KT CAVOK 20/19 Q1014 TEMPO BKN005
01:30
V
21 °C 10 km+ - 250°   250° 3 kt METAR LFBP 212330Z AUTO 25003KT CAVOK 21/20 Q1014 TEMPO BKN005
01:00
V
21 °C 10 km+ - 280°   280° 4 kt METAR LFBP 212300Z AUTO 28004KT 240V320 CAVOK 21/20 Q1014 TEMPO BKN005
00:30
V
22 °C 10 km+ - 350°   350° 5 kt METAR LFBP 212230Z AUTO 35005KT CAVOK 22/20 Q1014 TEMPO 27010KT BKN005
00:00
V
22 °C 10 km+ - 310°   310° 3 kt METAR LFBP 212200Z AUTO 31003KT CAVOK 22/20 Q1014 TEMPO BKN005

21 maja 2022

Czas Kod Pogoda Temp. Widoczność Chmury Wiatr METAR/SPECI
23:30
V
22 °C 10 km+ - Var   Var 1 kt METAR LFBP 212130Z AUTO VRB01KT CAVOK 22/20 Q1014 TEMPO BKN005
23:00
V
23 °C 10 km+ - Var   Var 1 kt METAR LFBP 212100Z AUTO VRB01KT CAVOK 23/20 Q1014 TEMPO BKN005
22:30
V
24 °C 10 km+ - 100°   100° 5 kt METAR LFBP 212030Z AUTO 10005KT 080V140 CAVOK 24/20 Q1014 TEMPO BKN005 BECMG 27010KT
22:00
V
25 °C 10 km+ - 090°   090° 5 kt METAR LFBP 212000Z AUTO 09005KT CAVOK 25/20 Q1014 BECMG 27010KT
21:30
V
26 °C 10 km+ - 040°   040° 3 kt METAR LFBP 211930Z AUTO 04003KT CAVOK 26/20 Q1014 BECMG 27010KT
21:00
V
27 °C 10 km+ - Var   Var 3 kt METAR LFBP 211900Z AUTO VRB03KT CAVOK 27/21 Q1015 NOSIG
20:30
V
28 °C 10 km+ - 080°   080° 4 kt METAR LFBP 211830Z AUTO 08004KT CAVOK 28/21 Q1015 BECMG 27010KT
20:00
V
29 °C 10 km+ - 070°   070° 4 kt METAR LFBP 211800Z AUTO 07004KT CAVOK 29/20 Q1015 NOSIG
19:30
V
30 °C 10 km+ - 080°   080° 6 kt METAR LFBP 211730Z AUTO 08006KT CAVOK 30/20 Q1015 NOSIG
19:00
V
30 °C 10 km+ - 030°   030° 5 kt METAR LFBP 211700Z AUTO 03005KT 350V050 CAVOK 30/21 Q1015 NOSIG
18:30
V
30 °C 10 km+ - 030°   030° 6 kt METAR LFBP 211630Z AUTO 03006KT CAVOK 30/22 Q1015 NOSIG
18:00
V
30 °C 10 km+ - 330°   330° 7 kt METAR LFBP 211600Z AUTO 33007KT 300V360 CAVOK 30/22 Q1016 NOSIG
17:30
V
31 °C 10 km+ - 350°   350° 5 kt METAR LFBP 211530Z AUTO 35005KT 300V060 CAVOK 31/23 Q1016 NOSIG
17:00
V
31 °C 10 km+ - 010°   010° 5 kt METAR LFBP 211500Z AUTO 01005KT 320V050 CAVOK 31/21 Q1016 NOSIG
16:30
V
30 °C 10 km+ - 030°   030° 5 kt METAR LFBP 211430Z AUTO 03005KT 330V090 CAVOK 30/21 Q1016 NOSIG
16:00
V
31 °C 10 km+ - 050°   050° 4 kt METAR LFBP 211400Z AUTO 05004KT 360V130 CAVOK 31/22 Q1016 NOSIG
15:30
V
30 °C 10 km+ - 350°   350° 4 kt METAR LFBP 211330Z AUTO 35004KT 290V060 CAVOK 30/22 Q1017 NOSIG
15:00
V
30 °C 10 km+ - 030°   030° 6 kt METAR LFBP 211300Z AUTO 03006KT 320V070 CAVOK 30/22 Q1017 NOSIG
14:30
V
28 °C 10 km+ - 060°   060° 5 kt METAR LFBP 211230Z AUTO 06005KT 030V100 CAVOK 28/21 Q1017 NOSIG
14:00
V
28 °C 10 km+ - 020°   020° 3 kt METAR LFBP 211200Z AUTO 02003KT 300V080 CAVOK 28/21 Q1017 NOSIG
13:30
V
28 °C 10 km+ - Var   Var 3 kt METAR LFBP 211130Z AUTO VRB03KT CAVOK 28/21 Q1018 NOSIG
13:00
V
27 °C 10 km+ - 100°   100° 3 kt METAR LFBP 211100Z AUTO 10003KT 040V190 CAVOK 27/20 Q1018 NOSIG
12:30
V
26 °C 10 km+ - 100°   100° 3 kt METAR LFBP 211030Z AUTO 10003KT 030V160 CAVOK 26/19 Q1018 NOSIG
12:00
V
25 °C 10 km+ - 060°   060° 5 kt METAR LFBP 211000Z AUTO 06005KT 360V120 CAVOK 25/19 Q1018 NOSIG
11:30
V
25 °C 10 km+ - 090°   090° 4 kt METAR LFBP 210930Z AUTO 09004KT 360V160 CAVOK 25/19 Q1018 NOSIG
11:00
V
23 °C 10 km+ - 110°   110° 6 kt METAR LFBP 210900Z AUTO 11006KT 060V140 CAVOK 23/19 Q1018 NOSIG
10:30
V
23 °C 10 km+ - 110°   110° 9 kt METAR LFBP 210830Z AUTO 11009KT CAVOK 23/18 Q1018 NOSIG
10:00
V
21 °C 10 km+ - 100°   100° 8 kt METAR LFBP 210800Z AUTO 10008KT CAVOK 21/18 Q1019 NOSIG
09:30
V
20 °C 10 km+ - 100°   100° 5 kt METAR LFBP 210730Z AUTO 10005KT 060V190 9999 FEW009 20/17 Q1019 NOSIG
09:00
V
19 °C 10 km+ - Var   Var 2 kt METAR LFBP 210700Z AUTO VRB02KT CAVOK 19/17 Q1020 NOSIG
08:30
V
17 °C 10 km+ - Var   Var 1 kt METAR LFBP 210630Z AUTO VRB01KT CAVOK 17/17 Q1020 NOSIG
08:00
V
17 °C 9 km - Var   Var 3 kt METAR LFBP 210600Z AUTO VRB03KT 9000 FEW002 17/16 Q1020 TEMPO 2000 BR
07:30
I
16 °C 3,2 km - Var   Var 3 kt METAR LFBP 210530Z AUTO VRB03KT 7000 3200 FEW001 16/16 Q1020 NOSIG
07:00
V
15 °C 8 km - Var   Var 2 kt METAR LFBP 210500Z AUTO VRB02KT 8000 NSC 15/15 Q1020 TEMPO 4000 BR
Starsze dane

Pobierz naszą aplikację

Łatwy dostęp do całej pogody lotniczej na telefonie komórkowym i tablecie.
Z wieloma funkcjami niedostępnymi na stronie internetowej, takimi jak wsparcie offline i osobista lista lotnisk.

My i osoby trzecie śledzimy twoje zachowanie w internecie na naszej stronie za pomocą plików cookie. Jeśli kontynuujesz, zakładamy, że zgadzasz się z naszą polityką plików cookie. Dowiedz się więcej